<?xml version="1.0" encoding="UTF-8" standalone="no" ?>
<gpx xmlns="http://www.topografix.com/GPX/1/1" xmlns:xsi="http://www.w3.org/2001/XMLSchema-instance" xsi:schemaLocation="http://www.topografix.com/GPX/1/1 http://www.topografix.com/GPX/1/1/gpx.xsd" version="1.1" creator="VisuGPX - https://www.visugpx.com">
  <metadata>
    <name>Yrieu-l-Anguillère</name>
  </metadata>
  <trk>
    <name><![CDATA[14638979-Yrieu-l-Anguillère]]></name>
    <trkseg>
      <trkpt lat="43.56564" lon="-1.4342">
        <ele>42</ele>
        <time>2022-04-25T20:50:18Z</time>
      </trkpt>
      <trkpt lat="43.56589" lon="-1.43555">
        <ele>41</ele>
        <time>2022-04-25T20:52:33Z</time>
      </trkpt>
      <trkpt lat="43.56643" lon="-1.4383">
        <ele>39</ele>
        <time>2022-04-25T20:57:08Z</time>
      </trkpt>
      <trkpt lat="43.56669" lon="-1.43956">
        <ele>38</ele>
        <time>2022-04-25T20:59:15Z</time>
      </trkpt>
      <trkpt lat="43.56713" lon="-1.44079">
        <ele>35</ele>
        <time>2022-04-25T21:01:28Z</time>
      </trkpt>
      <trkpt lat="43.56668" lon="-1.44147">
        <ele>32</ele>
        <time>2022-04-25T21:02:57Z</time>
      </trkpt>
      <trkpt lat="43.56632" lon="-1.44289">
        <ele>29</ele>
        <time>2022-04-25T21:05:22Z</time>
      </trkpt>
      <trkpt lat="43.56632" lon="-1.44325">
        <ele>28</ele>
        <time>2022-04-25T21:05:57Z</time>
      </trkpt>
      <trkpt lat="43.56654" lon="-1.44388">
        <ele>27</ele>
        <time>2022-04-25T21:07:04Z</time>
      </trkpt>
      <trkpt lat="43.56721" lon="-1.44579">
        <ele>19</ele>
        <time>2022-04-25T21:10:30Z</time>
      </trkpt>
      <trkpt lat="43.56937" lon="-1.44703">
        <ele>19</ele>
        <time>2022-04-25T21:15:42Z</time>
      </trkpt>
      <trkpt lat="43.5706" lon="-1.45029">
        <ele>7</ele>
        <time>2022-04-25T21:21:37Z</time>
      </trkpt>
      <trkpt lat="43.57243" lon="-1.45113">
        <ele>7</ele>
        <time>2022-04-25T21:25:55Z</time>
      </trkpt>
      <trkpt lat="43.57304" lon="-1.45141">
        <ele>9</ele>
        <time>2022-04-25T21:27:20Z</time>
      </trkpt>
      <trkpt lat="43.57425" lon="-1.4513">
        <ele>8</ele>
        <time>2022-04-25T21:30:02Z</time>
      </trkpt>
      <trkpt lat="43.57444" lon="-1.45167">
        <ele>6</ele>
        <time>2022-04-25T21:30:46Z</time>
      </trkpt>
      <trkpt lat="43.57523" lon="-1.45306">
        <ele>5</ele>
        <time>2022-04-25T21:33:37Z</time>
      </trkpt>
      <trkpt lat="43.57646" lon="-1.45626">
        <ele>6</ele>
        <time>2022-04-25T21:39:27Z</time>
      </trkpt>
      <trkpt lat="43.57752" lon="-1.45952">
        <ele>13</ele>
        <time>2022-04-25T21:45:12Z</time>
      </trkpt>
      <trkpt lat="43.57806" lon="-1.46106">
        <ele>13</ele>
        <time>2022-04-25T21:47:58Z</time>
      </trkpt>
      <trkpt lat="43.57835" lon="-1.46194">
        <ele>8</ele>
        <time>2022-04-25T21:49:31Z</time>
      </trkpt>
      <trkpt lat="43.57918" lon="-1.46355">
        <ele>5</ele>
        <time>2022-04-25T21:52:42Z</time>
      </trkpt>
      <trkpt lat="43.57929" lon="-1.46402">
        <ele>6</ele>
        <time>2022-04-25T21:53:30Z</time>
      </trkpt>
      <trkpt lat="43.57926" lon="-1.46437">
        <ele>6</ele>
        <time>2022-04-25T21:54:04Z</time>
      </trkpt>
      <trkpt lat="43.57946" lon="-1.46488">
        <ele>6</ele>
        <time>2022-04-25T21:55:00Z</time>
      </trkpt>
      <trkpt lat="43.58022" lon="-1.46606">
        <ele>5</ele>
        <time>2022-04-25T21:57:33Z</time>
      </trkpt>
      <trkpt lat="43.58139" lon="-1.46744">
        <ele>6</ele>
        <time>2022-04-25T22:00:58Z</time>
      </trkpt>
      <trkpt lat="43.58278" lon="-1.46952">
        <ele>4</ele>
        <time>2022-04-25T22:05:32Z</time>
      </trkpt>
      <trkpt lat="43.58293" lon="-1.47009">
        <ele>4</ele>
        <time>2022-04-25T22:06:30Z</time>
      </trkpt>
      <trkpt lat="43.58333" lon="-1.47059">
        <ele>2</ele>
        <time>2022-04-25T22:07:42Z</time>
      </trkpt>
      <trkpt lat="43.58329" lon="-1.47084">
        <ele>2</ele>
        <time>2022-04-25T22:08:07Z</time>
      </trkpt>
      <trkpt lat="43.58262" lon="-1.47016">
        <ele>5</ele>
        <time>2022-04-25T22:09:58Z</time>
      </trkpt>
      <trkpt lat="43.58225" lon="-1.46935">
        <ele>6</ele>
        <time>2022-04-25T22:11:31Z</time>
      </trkpt>
      <trkpt lat="43.58182" lon="-1.46868">
        <ele>6</ele>
        <time>2022-04-25T22:12:57Z</time>
      </trkpt>
      <trkpt lat="43.58151" lon="-1.46839">
        <ele>6</ele>
        <time>2022-04-25T22:13:47Z</time>
      </trkpt>
      <trkpt lat="43.58128" lon="-1.46806">
        <ele>7</ele>
        <time>2022-04-25T22:14:32Z</time>
      </trkpt>
      <trkpt lat="43.5812" lon="-1.46767">
        <ele>7</ele>
        <time>2022-04-25T22:15:11Z</time>
      </trkpt>
      <trkpt lat="43.58098" lon="-1.46743">
        <ele>7</ele>
        <time>2022-04-25T22:15:48Z</time>
      </trkpt>
      <trkpt lat="43.58061" lon="-1.46729">
        <ele>7</ele>
        <time>2022-04-25T22:16:39Z</time>
      </trkpt>
      <trkpt lat="43.58043" lon="-1.46686">
        <ele>6</ele>
        <time>2022-04-25T22:17:27Z</time>
      </trkpt>
      <trkpt lat="43.57981" lon="-1.46591">
        <ele>5</ele>
        <time>2022-04-25T22:19:31Z</time>
      </trkpt>
      <trkpt lat="43.57809" lon="-1.46355">
        <ele>7</ele>
        <time>2022-04-25T22:24:55Z</time>
      </trkpt>
      <trkpt lat="43.57723" lon="-1.46269">
        <ele>7</ele>
        <time>2022-04-25T22:27:16Z</time>
      </trkpt>
      <trkpt lat="43.57572" lon="-1.46119">
        <ele>7</ele>
        <time>2022-04-25T22:31:25Z</time>
      </trkpt>
      <trkpt lat="43.5756" lon="-1.46103">
        <ele>7</ele>
        <time>2022-04-25T22:31:47Z</time>
      </trkpt>
      <trkpt lat="43.57465" lon="-1.46248">
        <ele>9</ele>
        <time>2022-04-25T22:34:56Z</time>
      </trkpt>
      <trkpt lat="43.57315" lon="-1.46072">
        <ele>6</ele>
        <time>2022-04-25T22:39:19Z</time>
      </trkpt>
      <trkpt lat="43.57177" lon="-1.45892">
        <ele>7</ele>
        <time>2022-04-25T22:43:32Z</time>
      </trkpt>
      <trkpt lat="43.57123" lon="-1.45839">
        <ele>7</ele>
        <time>2022-04-25T22:45:00Z</time>
      </trkpt>
      <trkpt lat="43.56926" lon="-1.45918">
        <ele>7</ele>
        <time>2022-04-25T22:49:34Z</time>
      </trkpt>
      <trkpt lat="43.56874" lon="-1.45701">
        <ele>5</ele>
        <time>2022-04-25T22:53:15Z</time>
      </trkpt>
      <trkpt lat="43.56806" lon="-1.4541">
        <ele>5</ele>
        <time>2022-04-25T22:58:11Z</time>
      </trkpt>
      <trkpt lat="43.56776" lon="-1.45317">
        <ele>6</ele>
        <time>2022-04-25T22:59:49Z</time>
      </trkpt>
      <trkpt lat="43.56737" lon="-1.45153">
        <ele>8</ele>
        <time>2022-04-25T23:02:36Z</time>
      </trkpt>
      <trkpt lat="43.56725" lon="-1.45137">
        <ele>8</ele>
        <time>2022-04-25T23:02:58Z</time>
      </trkpt>
      <trkpt lat="43.56729" lon="-1.45125">
        <ele>8</ele>
        <time>2022-04-25T23:03:11Z</time>
      </trkpt>
      <trkpt lat="43.56745" lon="-1.45122">
        <ele>8</ele>
        <time>2022-04-25T23:03:33Z</time>
      </trkpt>
      <trkpt lat="43.56747" lon="-1.45068">
        <ele>8</ele>
        <time>2022-04-25T23:04:25Z</time>
      </trkpt>
      <trkpt lat="43.56745" lon="-1.45004">
        <ele>8</ele>
        <time>2022-04-25T23:05:27Z</time>
      </trkpt>
      <trkpt lat="43.56773" lon="-1.44929">
        <ele>12</ele>
        <time>2022-04-25T23:06:48Z</time>
      </trkpt>
      <trkpt lat="43.56772" lon="-1.44847">
        <ele>16</ele>
        <time>2022-04-25T23:08:08Z</time>
      </trkpt>
      <trkpt lat="43.56766" lon="-1.44799">
        <ele>18</ele>
        <time>2022-04-25T23:08:55Z</time>
      </trkpt>
      <trkpt lat="43.56733" lon="-1.44619">
        <ele>18</ele>
        <time>2022-04-25T23:11:54Z</time>
      </trkpt>
      <trkpt lat="43.56724" lon="-1.44589">
        <ele>19</ele>
        <time>2022-04-25T23:12:26Z</time>
      </trkpt>
      <trkpt lat="43.56707" lon="-1.44542">
        <ele>22</ele>
        <time>2022-04-25T23:13:17Z</time>
      </trkpt>
      <trkpt lat="43.56668" lon="-1.44434">
        <ele>25</ele>
        <time>2022-04-25T23:15:13Z</time>
      </trkpt>
      <trkpt lat="43.56628" lon="-1.44287">
        <ele>29</ele>
        <time>2022-04-25T23:17:45Z</time>
      </trkpt>
      <trkpt lat="43.56636" lon="-1.44256">
        <ele>29</ele>
        <time>2022-04-25T23:18:17Z</time>
      </trkpt>
      <trkpt lat="43.56634" lon="-1.44236">
        <ele>30</ele>
        <time>2022-04-25T23:18:36Z</time>
      </trkpt>
      <trkpt lat="43.56638" lon="-1.44198">
        <ele>30</ele>
        <time>2022-04-25T23:19:14Z</time>
      </trkpt>
      <trkpt lat="43.56633" lon="-1.44141">
        <ele>31</ele>
        <time>2022-04-25T23:20:09Z</time>
      </trkpt>
      <trkpt lat="43.5663" lon="-1.44016">
        <ele>34</ele>
        <time>2022-04-25T23:22:10Z</time>
      </trkpt>
      <trkpt lat="43.56632" lon="-1.4399">
        <ele>35</ele>
        <time>2022-04-25T23:22:35Z</time>
      </trkpt>
      <trkpt lat="43.56672" lon="-1.4395">
        <ele>38</ele>
        <time>2022-04-25T23:23:41Z</time>
      </trkpt>
      <trkpt lat="43.56648" lon="-1.43842">
        <ele>39</ele>
        <time>2022-04-25T23:25:30Z</time>
      </trkpt>
      <trkpt lat="43.56629" lon="-1.43744">
        <ele>41</ele>
        <time>2022-04-25T23:27:08Z</time>
      </trkpt>
      <trkpt lat="43.56601" lon="-1.4361">
        <ele>41</ele>
        <time>2022-04-25T23:29:23Z</time>
      </trkpt>
      <trkpt lat="43.56567" lon="-1.43453">
        <ele>42</ele>
        <time>2022-04-25T23:32:02Z</time>
      </trkpt>
      <trkpt lat="43.56563" lon="-1.4342">
        <ele>42</ele>
        <time>2022-04-25T23:32:34Z</time>
      </trkpt>
    </trkseg>
  </trk>
</gpx>